createdAt,value
2023-04-22T00:01:25.231Z,12.00
2023-04-22T00:03:52.289Z,12.00
2023-04-22T00:06:19.118Z,12.00
2023-04-22T00:08:45.825Z,12.00
2023-04-22T00:11:12.624Z,12.00
2023-04-22T00:13:43.542Z,11.90
2023-04-22T00:16:10.742Z,11.90
2023-04-22T00:18:37.469Z,11.90
2023-04-22T00:21:04.456Z,11.90
2023-04-22T00:23:31.563Z,11.90
2023-04-22T00:25:58.285Z,11.80
2023-04-22T00:28:25.044Z,11.80
2023-04-22T00:30:52.050Z,11.80
2023-04-22T00:33:18.879Z,11.70
2023-04-22T00:35:48.734Z,11.70
2023-04-22T00:38:15.548Z,11.70
2023-04-22T00:40:42.299Z,11.70
2023-04-22T00:43:09.247Z,11.70
2023-04-22T00:45:36.916Z,11.60
2023-04-22T00:48:03.726Z,11.60
2023-04-22T00:50:30.644Z,11.60
2023-04-22T00:52:57.443Z,11.60
2023-04-22T00:55:24.589Z,11.60
2023-04-22T00:57:51.873Z,11.60
2023-04-22T01:00:20.154Z,11.60
2023-04-22T01:02:47.798Z,11.50
2023-04-22T01:05:14.733Z,11.50
2023-04-22T01:07:41.483Z,11.50
2023-04-22T01:10:08.468Z,11.50
2023-04-22T01:12:35.256Z,11.50
2023-04-22T01:15:04.509Z,11.50
2023-04-22T01:17:34.499Z,11.50
2023-04-22T01:20:03.940Z,11.50
2023-04-22T01:22:35.321Z,11.50
2023-04-22T01:25:02.735Z,11.50
2023-04-22T01:27:29.541Z,11.50
2023-04-22T01:29:56.302Z,11.50
2023-04-22T01:32:23.556Z,11.50
2023-04-22T01:34:52.138Z,11.50
2023-04-22T01:37:18.873Z,11.40
2023-04-22T01:39:46.822Z,11.50
2023-04-22T01:42:14.137Z,11.50
2023-04-22T01:44:40.989Z,11.50
2023-04-22T01:47:08.073Z,11.50
2023-04-22T01:49:35.409Z,11.50
2023-04-22T01:52:02.186Z,11.50
2023-04-22T01:54:28.963Z,11.50
2023-04-22T01:56:56.032Z,11.50
2023-04-22T01:59:22.782Z,11.50
2023-04-22T02:01:50.409Z,11.50
2023-04-22T02:04:18.205Z,11.50
2023-04-22T02:06:44.922Z,11.50
2023-04-22T02:09:11.668Z,11.50
2023-04-22T02:11:38.785Z,11.50
2023-04-22T02:14:05.649Z,11.50
2023-04-22T02:16:32.450Z,11.50
2023-04-22T02:19:00.174Z,11.50
2023-04-22T02:21:28.778Z,11.50
2023-04-22T02:23:55.579Z,11.50
2023-04-22T02:26:23.675Z,11.50
2023-04-22T02:28:50.414Z,11.50
2023-04-22T02:31:17.289Z,11.50
2023-04-22T02:33:44.306Z,11.50
2023-04-22T02:36:11.452Z,11.50
2023-04-22T02:38:38.684Z,11.50
2023-04-22T02:41:05.476Z,11.50
2023-04-22T02:43:32.293Z,11.50
2023-04-22T02:45:59.067Z,11.50
2023-04-22T02:48:26.155Z,11.50
2023-04-22T02:50:53.073Z,11.50
2023-04-22T02:53:19.789Z,11.50
2023-04-22T02:55:46.492Z,11.40
2023-04-22T02:58:13.189Z,11.40
2023-04-22T03:00:40.144Z,11.40
2023-04-22T03:03:07.293Z,11.40
2023-04-22T03:05:34.708Z,11.40
2023-04-22T03:08:02.635Z,11.40
2023-04-22T03:10:30.139Z,11.30
2023-04-22T03:12:56.869Z,11.30
2023-04-22T03:15:23.680Z,11.30
2023-04-22T03:17:50.493Z,11.30
2023-04-22T03:20:20.122Z,11.30
2023-04-22T03:22:47.525Z,11.40
2023-04-22T03:25:15.949Z,11.30
2023-04-22T03:27:48.980Z,11.30
2023-04-22T03:30:15.759Z,11.30
2023-04-22T03:32:43.009Z,11.30
2023-04-22T03:35:22.292Z,11.20
2023-04-22T03:37:51.015Z,11.20
2023-04-22T03:40:22.772Z,11.20
2023-04-22T03:42:49.695Z,11.20
2023-04-22T03:45:19.127Z,11.20
2023-04-22T03:47:53.269Z,11.20
2023-04-22T03:50:25.842Z,11.10
2023-04-22T03:52:54.066Z,11.10
2023-04-22T03:55:21.578Z,11.10
2023-04-22T03:57:51.322Z,11.10
2023-04-22T04:00:18.135Z,11.10
2023-04-22T04:02:51.698Z,11.10
2023-04-22T04:05:23.433Z,11.10
2023-04-22T04:07:50.332Z,11.10
2023-04-22T04:10:17.019Z,11.10
2023-04-22T04:12:43.732Z,11.10
2023-04-22T04:15:11.930Z,11.10
2023-04-22T04:17:39.722Z,11.10
2023-04-22T04:20:07.425Z,11.10
2023-04-22T04:22:36.071Z,11.10
2023-04-22T04:25:03.531Z,11.00
2023-04-22T04:27:35.314Z,11.00
2023-04-22T04:30:03.674Z,11.00
2023-04-22T04:32:38.969Z,11.00
2023-04-22T04:35:08.892Z,11.00
2023-04-22T04:37:40.377Z,11.10
2023-04-22T04:40:10.469Z,11.10
2023-04-22T04:42:46.120Z,11.10
2023-04-22T04:45:19.893Z,11.10
2023-04-22T04:47:50.566Z,11.10
2023-04-22T04:50:22.529Z,11.10
2023-04-22T04:52:49.886Z,11.10
2023-04-22T04:55:20.294Z,11.10
2023-04-22T04:57:47.533Z,11.10
2023-04-22T05:00:14.835Z,11.10
2023-04-22T05:02:42.081Z,11.10
2023-04-22T05:05:09.431Z,11.10
2023-04-22T05:07:37.433Z,11.10
2023-04-22T05:10:06.727Z,11.10
2023-04-22T05:12:33.721Z,11.20
2023-04-22T05:15:00.895Z,11.20
2023-04-22T05:17:28.257Z,11.20
2023-04-22T05:19:55.191Z,11.20
2023-04-22T05:22:21.995Z,11.20
2023-04-22T05:24:49.537Z,11.20
2023-04-22T05:27:16.386Z,11.20
2023-04-22T05:29:43.392Z,11.20
2023-04-22T05:32:11.506Z,11.30
2023-04-22T05:34:39.202Z,11.30
2023-04-22T05:37:06.304Z,11.30
2023-04-22T05:39:36.089Z,11.30
2023-04-22T05:42:08.926Z,11.30
2023-04-22T05:44:35.675Z,11.40
2023-04-22T05:47:02.386Z,11.50
2023-04-22T05:49:29.147Z,11.50
2023-04-22T05:52:24.923Z,11.60
2023-04-22T05:55:04.522Z,11.60
2023-04-22T05:57:31.652Z,11.60
2023-04-22T06:00:00.339Z,11.70
2023-04-22T06:02:27.570Z,11.70
2023-04-22T06:04:54.758Z,11.80
2023-04-22T06:07:22.244Z,11.80
2023-04-22T06:09:48.985Z,11.90
2023-04-22T06:12:15.785Z,11.90
2023-04-22T06:14:42.759Z,12.00
2023-04-22T06:17:09.665Z,12.00
2023-04-22T06:19:37.087Z,12.00
2023-04-22T06:22:04.234Z,12.00
2023-04-22T06:24:31.290Z,12.10
2023-04-22T06:26:58.245Z,12.20
2023-04-22T06:29:27.196Z,12.20
2023-04-22T06:31:54.920Z,12.20
2023-04-22T06:34:23.582Z,12.30
2023-04-22T06:36:51.303Z,12.30
2023-04-22T06:39:18.031Z,12.30
2023-04-22T06:42:02.231Z,12.30
2023-04-22T06:44:55.083Z,12.40
2023-04-22T06:47:40.493Z,12.50
2023-04-22T06:50:14.216Z,12.50
2023-04-22T06:52:57.224Z,12.60
2023-04-22T06:55:24.411Z,12.70
2023-04-22T06:57:51.566Z,12.70
2023-04-22T07:00:18.511Z,12.80
2023-04-22T07:02:46.654Z,12.90
2023-04-22T07:05:13.461Z,12.90
2023-04-22T07:07:40.343Z,12.90
2023-04-22T07:10:10.720Z,12.90
2023-04-22T07:12:44.759Z,13.00
2023-04-22T07:15:11.577Z,13.00
2023-04-22T07:17:38.334Z,13.10
2023-04-22T07:20:05.450Z,13.10
2023-04-22T07:22:32.152Z,13.10
2023-04-22T07:24:58.835Z,13.20
2023-04-22T07:27:25.670Z,13.30
2023-04-22T07:29:52.368Z,13.30
2023-04-22T07:32:19.221Z,13.30
2023-04-22T07:34:47.812Z,13.40
2023-04-22T07:37:14.500Z,13.50
2023-04-22T07:39:41.553Z,13.50
2023-04-22T07:42:08.508Z,13.50
2023-04-22T07:44:36.109Z,13.60
2023-04-22T07:47:04.837Z,13.70
2023-04-22T07:49:31.607Z,13.70
2023-04-22T07:51:58.327Z,13.70
2023-04-22T07:54:25.064Z,13.80
2023-04-22T07:56:51.840Z,13.90
2023-04-22T07:59:18.588Z,13.90
2023-04-22T08:01:46.578Z,14.00
2023-04-22T08:04:13.555Z,14.00
2023-04-22T08:06:40.657Z,14.10
2023-04-22T08:09:07.413Z,14.20
2023-04-22T08:11:34.299Z,14.30
2023-04-22T08:14:01.003Z,14.40
2023-04-22T08:16:27.738Z,14.40
2023-04-22T08:18:56.243Z,14.50
2023-04-22T08:21:23.018Z,14.50
2023-04-22T08:23:50.070Z,14.60
2023-04-22T08:26:16.954Z,14.70
2023-04-22T08:28:43.774Z,14.80
2023-04-22T08:31:12.741Z,14.90
2023-04-22T08:33:40.404Z,14.90
2023-04-22T08:36:08.622Z,15.00
2023-04-22T08:38:35.325Z,15.10
2023-04-22T08:41:02.685Z,15.20
2023-04-22T08:43:29.397Z,15.30
2023-04-22T08:45:56.301Z,15.30
2023-04-22T08:48:23.353Z,15.40
2023-04-22T08:50:50.223Z,15.50
2023-04-22T08:53:16.920Z,15.60
2023-04-22T08:55:44.333Z,15.70
2023-04-22T08:58:12.376Z,15.80
2023-04-22T09:00:40.209Z,15.90
2023-04-22T09:03:07.747Z,16.00
2023-04-22T09:05:35.181Z,16.10
2023-04-22T09:08:03.038Z,16.20
2023-04-22T09:10:31.095Z,16.30
2023-04-22T09:12:59.573Z,16.40
2023-04-22T09:15:27.704Z,16.50
2023-04-22T09:17:54.544Z,16.60
2023-04-22T09:20:26.069Z,16.70
2023-04-22T09:22:53.009Z,16.80
2023-04-22T09:25:20.765Z,16.90
2023-04-22T09:27:54.942Z,17.00
2023-04-22T09:30:26.453Z,17.00
2023-04-22T09:32:57.042Z,17.10
2023-04-22T09:35:30.156Z,17.20
2023-04-22T09:37:57.618Z,17.20
2023-04-22T09:40:24.799Z,17.30
2023-04-22T09:42:52.671Z,17.30
2023-04-22T09:45:27.217Z,17.40
2023-04-22T09:47:55.066Z,17.50
2023-04-22T09:50:24.149Z,17.60
2023-04-22T09:52:55.277Z,17.70
2023-04-22T09:55:23.202Z,17.80
2023-04-22T09:57:54.141Z,17.90
2023-04-22T10:00:21.661Z,18.00
2023-04-22T10:02:48.544Z,18.10
2023-04-22T10:05:15.527Z,18.30
2023-04-22T10:07:43.449Z,18.30
2023-04-22T10:10:10.691Z,18.40
2023-04-22T10:12:37.589Z,18.50
2023-04-22T10:15:04.915Z,18.60
2023-04-22T10:17:33.121Z,18.70
2023-04-22T10:20:04.497Z,18.70
2023-04-22T10:22:32.773Z,18.70
2023-04-22T10:24:59.622Z,18.80
2023-04-22T10:27:26.396Z,18.90
2023-04-22T10:29:53.108Z,19.00
2023-04-22T10:32:19.900Z,19.10
2023-04-22T10:34:47.092Z,19.20
2023-04-22T10:37:14.615Z,19.30
2023-04-22T10:39:42.675Z,19.30
2023-04-22T10:42:11.509Z,19.30
2023-04-22T10:44:52.000Z,19.40
2023-04-22T10:47:32.370Z,19.50
2023-04-22T10:50:14.599Z,19.50
2023-04-22T10:52:42.267Z,19.60
2023-04-22T10:55:09.355Z,19.70
2023-04-22T10:57:41.458Z,19.70
2023-04-22T11:00:17.369Z,19.80
2023-04-22T11:02:45.141Z,19.80
2023-04-22T11:05:19.081Z,19.90
2023-04-22T11:07:47.023Z,19.90
2023-04-22T11:10:29.960Z,20.00
2023-04-22T11:12:57.426Z,20.10
2023-04-22T11:15:24.363Z,20.20
2023-04-22T11:17:52.003Z,20.20
2023-04-22T11:20:19.556Z,20.20
2023-04-22T11:22:47.282Z,20.30
2023-04-22T11:25:14.613Z,20.40
2023-04-22T11:27:43.619Z,20.40
2023-04-22T11:30:15.052Z,20.50
2023-04-22T11:32:43.551Z,20.60
2023-04-22T11:35:11.516Z,20.60
2023-04-22T11:37:42.660Z,20.60
2023-04-22T11:40:27.797Z,20.70
2023-04-22T11:42:57.448Z,20.70
2023-04-22T11:45:24.603Z,20.80
2023-04-22T11:47:51.758Z,20.90
2023-04-22T11:50:22.007Z,20.90
2023-04-22T11:52:53.143Z,21.00
2023-04-22T11:55:19.958Z,21.00
2023-04-22T11:57:51.633Z,20.90
2023-04-22T12:00:18.714Z,20.90
2023-04-22T12:02:55.045Z,20.80
2023-04-22T12:05:31.871Z,20.80
2023-04-22T12:08:00.318Z,20.70
2023-04-22T12:10:27.310Z,20.70
2023-04-22T12:12:54.447Z,20.70
2023-04-22T12:15:21.164Z,20.70
2023-04-22T12:17:50.326Z,20.70
2023-04-22T12:20:17.088Z,20.80
2023-04-22T12:22:44.033Z,20.80
2023-04-22T12:25:11.049Z,20.90
2023-04-22T12:27:38.014Z,21.00
2023-04-22T12:30:05.240Z,21.10
2023-04-22T12:32:31.946Z,21.20
2023-04-22T12:34:58.711Z,21.20
2023-04-22T12:37:25.492Z,21.30
2023-04-22T12:39:52.318Z,21.40
2023-04-22T12:42:19.070Z,21.40
2023-04-22T12:44:46.887Z,21.50
2023-04-22T12:47:13.730Z,21.60
2023-04-22T12:49:44.806Z,21.70
2023-04-22T12:52:13.327Z,21.70
2023-04-22T12:54:42.033Z,21.60
2023-04-22T12:57:09.075Z,21.60
2023-04-22T12:59:35.947Z,21.70
2023-04-22T13:02:02.916Z,21.70
2023-04-22T13:04:29.727Z,21.70
2023-04-22T13:06:56.556Z,21.80
2023-04-22T13:09:26.986Z,21.80
2023-04-22T13:11:53.902Z,21.80
2023-04-22T13:14:21.457Z,21.80
2023-04-22T13:16:48.201Z,21.90
2023-04-22T13:19:15.341Z,21.90
2023-04-22T13:21:42.263Z,22.00
2023-04-22T13:24:09.190Z,22.00
2023-04-22T13:26:36.715Z,22.00
2023-04-22T13:29:03.563Z,22.10
2023-04-22T13:31:30.630Z,22.10
2023-04-22T13:33:57.594Z,22.10
2023-04-22T13:36:24.363Z,22.10
2023-04-22T13:38:51.276Z,22.10
2023-04-22T13:41:18.591Z,22.20
2023-04-22T13:43:45.373Z,22.20
2023-04-22T13:46:12.239Z,22.30
2023-04-22T13:48:39.059Z,22.40
2023-04-22T13:51:05.836Z,22.30
2023-04-22T13:53:34.524Z,22.30
2023-04-22T13:56:01.390Z,22.30
2023-04-22T13:58:28.094Z,22.40
2023-04-22T14:00:58.637Z,22.40
2023-04-22T14:03:25.652Z,22.40
2023-04-22T14:05:52.908Z,22.40
2023-04-22T14:08:19.745Z,22.40
2023-04-22T14:10:46.734Z,22.40
2023-04-22T14:13:13.421Z,22.40
2023-04-22T14:15:40.196Z,22.40
2023-04-22T14:18:06.991Z,22.40
2023-04-22T14:20:33.942Z,22.40
2023-04-22T14:23:01.070Z,22.50
2023-04-22T14:25:27.879Z,22.40
2023-04-22T14:27:54.584Z,22.40
2023-04-22T14:30:21.956Z,22.50
2023-04-22T14:32:50.348Z,22.50
2023-04-22T14:35:17.510Z,22.50
2023-04-22T14:37:45.066Z,22.50
2023-04-22T14:40:14.905Z,22.50
2023-04-22T14:42:41.689Z,22.60
2023-04-22T14:45:08.684Z,22.60
2023-04-22T14:47:35.428Z,22.60
2023-04-22T14:50:02.531Z,22.60
2023-04-22T14:52:29.297Z,22.60
2023-04-22T14:54:56.166Z,22.50
2023-04-22T14:57:22.972Z,22.50
2023-04-22T14:59:49.694Z,22.50
2023-04-22T15:02:16.875Z,22.50
2023-04-22T15:04:43.799Z,22.40
2023-04-22T15:07:10.673Z,22.40
2023-04-22T15:09:37.461Z,22.40
2023-04-22T15:12:07.341Z,22.40
2023-04-22T15:14:37.572Z,22.40
2023-04-22T15:17:05.081Z,22.50
2023-04-22T15:19:31.974Z,22.50
2023-04-22T15:21:58.744Z,22.50
2023-04-22T15:24:25.453Z,22.50
2023-04-22T15:26:52.876Z,22.50
2023-04-22T15:29:19.816Z,22.50
2023-04-22T15:31:46.932Z,22.60
2023-04-22T15:34:13.946Z,22.60
2023-04-22T15:36:40.916Z,22.60
2023-04-22T15:39:10.684Z,22.70
2023-04-22T15:41:37.431Z,22.70
2023-04-22T15:44:05.115Z,22.70
2023-04-22T15:46:33.096Z,22.60
2023-04-22T15:49:00.464Z,22.60
2023-04-22T15:51:27.499Z,22.50
2023-04-22T15:53:54.615Z,22.50
2023-04-22T15:56:21.369Z,22.50
2023-04-22T15:58:48.115Z,22.40
2023-04-22T16:01:19.350Z,22.40
2023-04-22T16:03:47.755Z,22.40
2023-04-22T16:06:14.567Z,22.40
2023-04-22T16:08:41.438Z,22.40
2023-04-22T16:11:08.474Z,22.40
2023-04-22T16:13:35.432Z,22.50
2023-04-22T16:16:02.128Z,22.50
2023-04-22T16:18:28.863Z,22.50
2023-04-22T16:20:56.027Z,22.40
2023-04-22T16:23:22.852Z,22.40
2023-04-22T16:25:50.187Z,22.30
2023-04-22T16:28:17.210Z,22.30
2023-04-22T16:30:44.026Z,22.30
2023-04-22T16:33:10.838Z,22.20
2023-04-22T16:35:37.666Z,22.20
2023-04-22T16:38:04.823Z,22.20
2023-04-22T16:40:31.681Z,22.20
2023-04-22T16:43:03.346Z,22.20
2023-04-22T16:45:30.178Z,22.10
2023-04-22T16:50:53.467Z,22.10
2023-04-22T16:53:20.326Z,22.10
2023-04-22T16:55:47.231Z,22.10
2023-04-22T16:58:13.984Z,22.10
2023-04-22T17:00:40.990Z,22.10
2023-04-22T17:03:07.934Z,22.00
2023-04-22T17:05:34.857Z,22.00
2023-04-22T17:08:02.056Z,22.00
2023-04-22T17:10:28.928Z,21.90
2023-04-22T17:12:55.965Z,21.90
2023-04-22T17:15:23.131Z,21.90
2023-04-22T17:17:49.985Z,21.80
2023-04-22T17:20:16.789Z,21.80
2023-04-22T17:22:43.996Z,21.80
2023-04-22T17:25:10.998Z,21.80
2023-04-22T17:27:37.764Z,21.70
2023-04-22T17:30:04.755Z,21.70
2023-04-22T17:32:31.785Z,21.70
2023-04-22T17:34:58.816Z,21.60
2023-04-22T17:37:25.684Z,21.60
2023-04-22T17:39:52.385Z,21.60
2023-04-22T17:42:19.321Z,21.60
2023-04-22T17:44:46.089Z,21.50
2023-04-22T17:47:12.913Z,21.50
2023-04-22T17:49:39.963Z,21.40
2023-04-22T17:52:07.044Z,21.30
2023-04-22T17:54:33.862Z,21.20
2023-04-22T17:57:01.089Z,21.20
2023-04-22T17:59:27.803Z,21.20
2023-04-22T18:01:54.604Z,21.10
2023-04-22T18:04:21.636Z,21.10
2023-04-22T18:06:48.372Z,21.00
2023-04-22T18:09:15.965Z,21.00
2023-04-22T18:11:42.714Z,20.90
2023-04-22T18:14:09.880Z,20.90
2023-04-22T18:16:36.685Z,20.80
2023-04-22T18:19:06.712Z,20.80
2023-04-22T18:21:33.925Z,20.80
2023-04-22T18:24:02.592Z,20.70
2023-04-22T18:26:29.670Z,20.70
2023-04-22T18:28:56.446Z,20.60
2023-04-22T18:31:23.429Z,20.60
2023-04-22T18:33:50.166Z,20.50
2023-04-22T18:36:17.191Z,20.50
2023-04-22T18:38:44.168Z,20.50
2023-04-22T18:41:12.945Z,20.40
2023-04-22T18:43:39.698Z,20.40
2023-04-22T18:46:06.634Z,20.30
2023-04-22T18:48:33.396Z,20.30
2023-04-22T18:51:00.240Z,20.30
2023-04-22T18:53:27.112Z,20.30
2023-04-22T18:55:54.110Z,20.30
2023-04-22T18:58:25.760Z,20.30
2023-04-22T19:00:52.974Z,20.20
2023-04-22T19:03:20.007Z,20.10
2023-04-22T19:05:46.896Z,20.10
2023-04-22T19:08:13.627Z,20.00
2023-04-22T19:10:40.342Z,20.00
2023-04-22T19:13:13.414Z,19.90
2023-04-22T19:15:45.721Z,19.90
2023-04-22T19:18:12.818Z,19.80
2023-04-22T19:20:39.620Z,19.80
2023-04-22T19:23:06.379Z,19.80
2023-04-22T19:25:34.177Z,19.80
2023-04-22T19:28:00.948Z,19.70
2023-04-22T19:30:27.927Z,19.70
2023-04-22T19:32:57.598Z,19.60
2023-04-22T19:35:24.874Z,19.60
2023-04-22T19:37:51.649Z,19.60
2023-04-22T19:40:19.566Z,19.60
2023-04-22T19:42:46.335Z,19.50
2023-04-22T19:45:13.052Z,19.40
2023-04-22T19:47:40.080Z,19.40
2023-04-22T19:50:07.843Z,19.30
2023-04-22T19:52:34.925Z,19.10
2023-04-22T19:55:09.115Z,19.00
2023-04-22T19:57:36.981Z,19.00
2023-04-22T20:00:06.882Z,18.90
2023-04-22T20:02:39.586Z,18.80
2023-04-22T20:05:06.646Z,18.90
2023-04-22T20:07:33.789Z,18.80
2023-04-22T20:10:02.291Z,18.80
2023-04-22T20:12:29.455Z,18.60
2023-04-22T20:15:02.765Z,18.60
2023-04-22T20:17:30.822Z,18.60
2023-04-22T20:20:01.688Z,18.60
2023-04-22T20:22:29.177Z,18.60
2023-04-22T20:25:04.077Z,18.60
2023-04-22T20:27:31.809Z,18.60
2023-04-22T20:29:59.214Z,18.60
2023-04-22T20:32:26.539Z,18.50
2023-04-22T20:34:53.825Z,18.50
2023-04-22T20:37:21.047Z,18.50
2023-04-22T20:39:51.413Z,18.50
2023-04-22T20:42:18.867Z,18.50
2023-04-22T20:44:45.833Z,18.40
2023-04-22T20:47:13.763Z,18.40
2023-04-22T20:49:41.977Z,18.40
2023-04-22T20:52:12.220Z,18.40
2023-04-22T20:54:39.634Z,18.30
2023-04-22T20:57:07.217Z,18.30
2023-04-22T20:59:34.661Z,18.30
2023-04-22T21:02:04.181Z,18.20
2023-04-22T21:04:31.662Z,18.20
2023-04-22T21:07:00.958Z,18.20
2023-04-22T21:09:27.815Z,18.20
2023-04-22T21:11:54.880Z,18.20
2023-04-22T21:14:24.164Z,18.10
2023-04-22T21:17:02.989Z,18.10
2023-04-22T21:19:32.332Z,18.10
2023-04-22T21:22:02.111Z,18.00
2023-04-22T21:24:31.058Z,18.00
2023-04-22T21:26:58.911Z,18.00
2023-04-22T21:29:25.884Z,17.90
2023-04-22T21:32:07.203Z,17.90
2023-04-22T21:34:35.994Z,17.90
2023-04-22T21:37:02.808Z,17.90
2023-04-22T21:39:29.804Z,17.90
2023-04-22T21:41:56.692Z,17.80
2023-04-22T21:44:23.710Z,17.80
2023-04-22T21:46:50.393Z,17.80
2023-04-22T21:49:17.157Z,17.80
2023-04-22T21:51:43.937Z,17.70
2023-04-22T21:54:10.846Z,17.70
2023-04-22T21:56:37.565Z,17.70
2023-04-22T21:59:04.343Z,17.70
2023-04-22T22:01:31.157Z,17.60
2023-04-22T22:03:58.177Z,17.60
2023-04-22T22:06:25.376Z,17.60
2023-04-22T22:08:53.230Z,17.50
2023-04-22T22:11:30.351Z,17.50
2023-04-22T22:13:58.850Z,17.50
2023-04-22T22:16:25.875Z,17.50
2023-04-22T22:18:52.827Z,17.50
2023-04-22T22:21:19.577Z,17.40
2023-04-22T22:23:46.462Z,17.40
2023-04-22T22:26:13.296Z,17.40
2023-04-22T22:28:40.244Z,17.40
2023-04-22T22:31:07.979Z,17.40
2023-04-22T22:33:34.976Z,17.30
2023-04-22T22:36:01.938Z,17.30
2023-04-22T22:38:28.644Z,17.30
2023-04-22T22:40:55.548Z,17.20
2023-04-22T22:43:22.271Z,17.20
2023-04-22T22:45:49.058Z,17.20
2023-04-22T22:48:16.159Z,17.20
2023-04-22T22:50:43.579Z,17.20
2023-04-22T22:53:11.311Z,17.10
2023-04-22T22:55:38.021Z,17.10
2023-04-22T22:58:04.723Z,17.10
2023-04-22T23:00:33.472Z,17.10
2023-04-22T23:03:06.154Z,17.00
2023-04-22T23:05:39.232Z,17.00
2023-04-22T23:08:07.267Z,17.00
2023-04-22T23:10:34.239Z,17.00
2023-04-22T23:13:02.463Z,17.00
2023-04-22T23:15:29.629Z,17.00
2023-04-22T23:17:56.732Z,16.90
2023-04-22T23:20:26.690Z,17.00
2023-04-22T23:22:54.544Z,16.90
2023-04-22T23:25:22.016Z,16.90
2023-04-22T23:30:31.083Z,16.90
2023-04-22T23:33:02.618Z,16.90
2023-04-22T23:35:30.147Z,16.90
2023-04-22T23:37:57.581Z,16.90
2023-04-22T23:40:24.332Z,16.90
2023-04-22T23:43:00.602Z,16.90
2023-04-22T23:45:27.394Z,16.80
2023-04-22T23:47:54.146Z,16.80
2023-04-22T23:50:20.968Z,16.80
2023-04-22T23:52:50.847Z,16.80
2023-04-22T23:55:28.234Z,16.80
2023-04-22T23:57:55.726Z,16.70
